Time;durP1;ratioP1;P1;durP2;ratioP2;P2;SDS_P1;SDS_P2;PMS_P1;PMS_P2;Temp;Humidity;BMP_temperature;BMP_pressure;BME280_temperature;BME280_humidity;BME280_pressure;Samples;Min_cycle;Max_cycle;Signal;HPM_P1;HPM_P2
2023/05/01 00:00:42;;;;;;;3.08;1.60;;;12.80;60.10;;;;;;5037345;28;20458;-78
2023/05/01 00:03:08;;;;;;;4.38;2.47;;;12.70;60.10;;;;;;5037470;28;20131;-78
2023/05/01 00:05:33;;;;;;;4.00;2.20;;;12.70;60.10;;;;;;5037663;28;20041;-78
2023/05/01 00:07:59;;;;;;;2.97;1.85;;;12.70;60.20;;;;;;5036714;28;20463;-78
2023/05/01 00:10:25;;;;;;;4.63;1.98;;;12.60;60.30;;;;;;5037446;28;20041;-78
2023/05/01 00:12:50;;;;;;;3.97;2.30;;;12.60;60.40;;;;;;5037973;28;20045;-78
2023/05/01 00:15:16;;;;;;;4.25;1.92;;;12.60;60.60;;;;;;5020992;28;20044;-72
2023/05/01 00:17:42;;;;;;;3.70;2.20;;;12.60;60.70;;;;;;5036726;28;20048;-72
2023/05/01 00:20:08;;;;;;;3.80;2.15;;;12.60;60.80;;;;;;5036710;28;20044;-71
2023/05/01 00:22:34;;;;;;;6.47;2.20;;;12.50;60.80;;;;;;5036431;28;20487;-71
2023/05/01 00:25:00;;;;;;;4.43;2.40;;;12.50;60.90;;;;;;5036771;28;20052;-72
2023/05/01 00:27:26;;;;;;;3.05;2.17;;;12.50;60.90;;;;;;5020068;28;20569;-72
2023/05/01 00:29:51;;;;;;;3.72;2.13;;;12.50;61.00;;;;;;5020032;28;20492;-71
2023/05/01 00:32:17;;;;;;;3.97;2.75;;;12.50;61.10;;;;;;5019908;28;20073;-72
2023/05/01 00:34:44;;;;;;;4.45;2.60;;;12.40;61.50;;;;;;5019888;28;20037;-71
2023/05/01 00:37:10;;;;;;;4.68;2.47;;;12.40;61.10;;;;;;5036473;28;20048;-71
2023/05/01 00:39:36;;;;;;;4.32;2.70;;;12.40;61.10;;;;;;5036559;28;20488;-71
2023/05/01 00:42:02;;;;;;;3.38;2.40;;;12.40;61.00;;;;;;5036149;28;20047;-71
2023/05/01 00:44:28;;;;;;;7.50;3.83;;;12.30;60.90;;;;;;5036243;28;20076;-71
2023/05/01 00:46:55;;;;;;;5.18;3.00;;;12.20;60.70;;;;;;5036200;28;20565;-71
2023/05/01 00:49:21;;;;;;;4.18;3.20;;;12.20;60.80;;;;;;5020283;28;20070;-71
2023/05/01 00:51:52;;;;;;;5.50;3.65;;;12.10;61.00;;;;;;5036106;28;20041;-71
2023/05/01 00:54:18;;;;;;;6.30;3.92;;;12.10;60.90;;;;;;5036237;28;20049;-71
2023/05/01 00:56:46;;;;;;;4.85;2.83;;;12.00;61.00;;;;;;5035890;28;20052;-71
2023/05/01 00:59:13;;;;;;;5.97;2.78;;;12.00;61.40;;;;;;5035751;28;20052;-71
2023/05/01 01:01:41;;;;;;;3.80;2.72;;;12.00;61.70;;;;;;5035848;28;20124;-72
2023/05/01 01:04:07;;;;;;;3.97;2.70;;;12.00;61.90;;;;;;5036224;28;20041;-78
2023/05/01 01:06:41;;;;;;;4.88;3.30;;;11.90;62.00;;;;;;5036316;28;20037;-80
2023/05/01 01:09:56;;;;;;;5.47;3.83;;;11.90;62.10;;;;;;5036193;28;20063;-78
2023/05/01 01:12:31;;;;;;;6.68;4.03;;;11.90;61.80;;;;;;5033223;28;20045;-78
2023/05/01 01:15:08;;;;;;;6.13;3.90;;;11.80;62.00;;;;;;5036147;28;20036;-78
2023/05/01 01:17:45;;;;;;;7.18;4.22;;;11.80;61.80;;;;;;5036067;28;20500;-78
2023/05/01 01:20:30;;;;;;;7.57;4.00;;;11.70;61.70;;;;;;5035373;28;20045;-79
2023/05/01 01:23:26;;;;;;;6.18;4.03;;;11.70;62.10;;;;;;5036283;28;20049;-79
2023/05/01 01:26:22;;;;;;;6.35;3.88;;;11.60;61.60;;;;;;4986363;28;20045;-78
2023/05/01 01:29:21;;;;;;;4.53;3.42;;;11.40;61.70;;;;;;5036115;28;20488;-78
2023/05/01 01:32:15;;;;;;;6.10;4.05;;;11.30;62.00;;;;;;5029738;28;20060;-79
2023/05/01 01:34:50;;;;;;;8.48;3.50;;;11.20;62.40;;;;;;5036072;28;20045;-78
2023/05/01 01:37:18;;;;;;;9.00;4.20;;;11.10;62.70;;;;;;5036052;28;20075;-78
2023/05/01 01:40:22;;;;;;;6.90;4.45;;;11.10;63.10;;;;;;5035971;28;20179;-79
2023/05/01 01:42:57;;;;;;;7.75;4.10;;;11.00;63.10;;;;;;4937634;29;20130;-79
2023/05/01 01:45:34;;;;;;;7.72;3.92;;;10.90;63.40;;;;;;4937322;29;20047;-78
2023/05/01 01:48:01;;;;;;;6.50;4.38;;;10.90;63.70;;;;;;4997184;28;20052;-78
2023/05/01 01:50:27;;;;;;;5.72;3.83;;;10.80;63.80;;;;;;5019597;28;20040;-78
2023/05/01 01:52:57;;;;;;;5.15;3.72;;;10.80;64.00;;;;;;5035699;28;20127;-78
2023/05/01 01:55:29;;;;;;;6.38;4.03;;;10.80;64.30;;;;;;5019073;28;20088;-78
2023/05/01 01:57:57;;;;;;;6.00;3.83;;;10.70;64.60;;;;;;5036049;28;20036;-78
2023/05/01 02:00:23;;;;;;;7.10;3.92;;;10.70;64.70;;;;;;5032073;28;20054;-78
2023/05/01 02:02:51;;;;;;;5.88;3.55;;;10.70;64.70;;;;;;5016123;28;20041;-77
2023/05/01 02:05:19;;;;;;;5.60;3.75;;;10.70;64.80;;;;;;5032190;28;20041;-78
2023/05/01 02:07:48;;;;;;;5.57;3.17;;;10.70;64.90;;;;;;5032525;28;20380;-77
2023/05/01 02:10:15;;;;;;;4.32;2.70;;;10.70;65.00;;;;;;5032337;28;20042;-78
2023/05/01 02:12:49;;;;;;;6.40;3.63;;;10.70;65.10;;;;;;5015740;28;20045;-78
2023/05/01 02:15:17;;;;;;;5.85;4.22;;;10.70;65.40;;;;;;5032378;28;20055;-79
2023/05/01 02:17:44;;;;;;;5.57;3.83;;;10.70;65.40;;;;;;5032071;28;20045;-78
2023/05/01 02:20:11;;;;;;;6.95;3.90;;;10.70;65.40;;;;;;5032230;28;20100;-78
2023/05/01 02:22:39;;;;;;;4.80;3.65;;;10.70;65.30;;;;;;5031958;28;20042;-78
2023/05/01 02:25:11;;;;;;;8.30;3.78;;;10.60;65.20;;;;;;5015403;28;20489;-77
2023/05/01 02:27:46;;;;;;;5.82;3.83;;;10.70;65.20;;;;;;5032087;28;20076;-78
2023/05/01 02:30:12;;;;;;;6.82;4.45;;;10.70;65.30;;;;;;5015582;28;20041;-78
2023/05/01 02:32:38;;;;;;;4.20;3.22;;;10.70;65.10;;;;;;5034866;28;20451;-77
2023/05/01 02:35:04;;;;;;;6.57;4.15;;;10.70;65.20;;;;;;5035807;28;20037;-78
2023/05/01 02:37:30;;;;;;;6.20;3.90;;;10.60;65.10;;;;;;5035903;28;20091;-77
2023/05/01 02:39:56;;;;;;;6.45;3.65;;;10.60;65.10;;;;;;5035896;28;20385;-78
2023/05/01 02:42:24;;;;;;;8.05;4.72;;;10.60;65.00;;;;;;5035919;28;20631;-77
2023/05/01 02:44:55;;;;;;;6.03;3.60;;;10.60;65.00;;;;;;5035857;28;20053;-78
2023/05/01 02:47:23;;;;;;;9.13;4.57;;;10.60;65.10;;;;;;5019731;28;20396;-77
2023/05/01 02:49:50;;;;;;;5.75;4.10;;;10.50;65.10;;;;;;5037340;28;20073;-78
2023/05/01 02:52:17;;;;;;;7.20;4.03;;;10.50;65.10;;;;;;5035871;28;20496;-78
2023/05/01 02:54:44;;;;;;;8.02;3.80;;;10.50;65.30;;;;;;5035599;28;20049;-78
2023/05/01 02:57:10;;;;;;;6.07;4.10;;;10.40;65.40;;;;;;5035761;28;20049;-78
2023/05/01 02:59:36;;;;;;;6.78;3.70;;;10.40;65.60;;;;;;5019135;28;20057;-78
2023/05/01 03:02:03;;;;;;;6.75;3.53;;;10.40;65.70;;;;;;5035909;28;20049;-78
2023/05/01 03:04:28;;;;;;;6.18;3.10;;;10.40;65.80;;;;;;5035584;28;20132;-78
2023/05/01 03:06:55;;;;;;;6.90;3.67;;;10.40;65.80;;;;;;5035579;28;20129;-78
2023/05/01 03:09:21;;;;;;;4.82;3.45;;;10.40;65.90;;;;;;5035232;28;20044;-78
2023/05/01 03:11:47;;;;;;;6.43;3.95;;;10.40;65.80;;;;;;5035260;28;20041;-78
2023/05/01 03:14:13;;;;;;;7.45;3.70;;;10.40;65.80;;;;;;5036663;28;20048;-78
2023/05/01 03:16:39;;;;;;;5.78;3.70;;;10.40;65.80;;;;;;5035206;28;20045;-78
2023/05/01 03:19:05;;;;;;;5.35;3.20;;;10.40;65.60;;;;;;5035072;28;20052;-78
2023/05/01 03:21:31;;;;;;;5.22;2.88;;;10.40;65.50;;;;;;5035195;28;20045;-78
2023/05/01 03:23:57;;;;;;;6.28;3.13;;;10.40;65.50;;;;;;5035134;28;20045;-78
2023/05/01 03:26:23;;;;;;;5.65;3.20;;;10.40;65.50;;;;;;5034925;28;20094;-78
2023/05/01 03:28:49;;;;;;;4.35;3.10;;;10.40;65.50;;;;;;5035020;28;20124;-78
2023/05/01 03:31:14;;;;;;;4.85;2.78;;;10.40;65.60;;;;;;5034848;28;20038;-78
2023/05/01 03:33:40;;;;;;;6.72;3.38;;;10.40;65.60;;;;;;5018473;28;20041;-78
2023/05/01 03:36:08;;;;;;;5.07;2.92;;;10.40;65.60;;;;;;5018228;28;20046;-78
2023/05/01 03:38:34;;;;;;;4.22;3.33;;;10.40;65.60;;;;;;5036189;28;20507;-78
2023/05/01 03:41:00;;;;;;;5.38;3.45;;;10.50;65.50;;;;;;5035024;28;20084;-78
2023/05/01 03:43:25;;;;;;;5.40;3.38;;;10.50;65.50;;;;;;5033760;28;20128;-77
2023/05/01 03:45:51;;;;;;;6.82;3.85;;;10.40;65.30;;;;;;5034629;28;20099;-77
2023/05/01 03:48:18;;;;;;;5.95;3.40;;;10.40;65.20;;;;;;5018285;28;20037;-78
2023/05/01 03:50:44;;;;;;;5.88;3.70;;;10.40;65.20;;;;;;5034599;28;20041;-77
2023/05/01 03:53:09;;;;;;;6.47;3.97;;;10.40;65.20;;;;;;5034902;28;20128;-78
2023/05/01 03:55:35;;;;;;;7.50;4.60;;;10.40;65.20;;;;;;5017974;28;20498;-77
2023/05/01 03:58:01;;;;;;;6.30;4.63;;;10.40;65.10;;;;;;5034971;28;20392;-77
2023/05/01 04:00:31;;;;;;;5.55;4.20;;;10.40;65.00;;;;;;5052467;28;20529;-77
2023/05/01 04:02:57;;;;;;;7.13;4.30;;;10.30;64.90;;;;;;5055385;28;20041;-77
2023/05/01 04:05:22;;;;;;;5.65;3.75;;;10.30;64.90;;;;;;5037999;28;20055;-77
2023/05/01 04:07:48;;;;;;;6.15;3.70;;;10.30;65.20;;;;;;5037614;28;20037;-78
2023/05/01 04:10:14;;;;;;;5.05;3.67;;;10.20;65.30;;;;;;5037545;28;20115;-78
2023/05/01 04:12:39;;;;;;;6.00;3.72;;;10.20;65.50;;;;;;5037640;28;20045;-77
2023/05/01 04:15:06;;;;;;;7.00;4.20;;;10.20;65.50;;;;;;5037600;28;20049;-78
2023/05/01 04:17:33;;;;;;;5.30;3.97;;;10.10;65.40;;;;;;5037293;28;20404;-71
2023/05/01 04:19:59;;;;;;;6.45;4.18;;;10.10;65.50;;;;;;5036804;28;20056;-72
2023/05/01 04:22:25;;;;;;;7.05;4.22;;;10.10;66.10;;;;;;5020117;28;20037;-71
2023/05/01 04:24:51;;;;;;;8.40;4.65;;;10.00;65.80;;;;;;5036438;28;20060;-71
2023/05/01 04:27:18;;;;;;;7.72;4.28;;;10.00;65.80;;;;;;5036535;28;20048;-71
2023/05/01 04:29:44;;;;;;;7.32;4.85;;;9.90;65.90;;;;;;5036775;28;20451;-71
2023/05/01 04:32:10;;;;;;;7.68;3.72;;;9.90;66.10;;;;;;5036488;28;20128;-72
2023/05/01 04:34:36;;;;;;;8.73;5.15;;;9.90;66.30;;;;;;5019975;28;20048;-71
2023/05/01 04:37:02;;;;;;;5.85;4.10;;;9.90;66.60;;;;;;5036447;28;20040;-70
2023/05/01 04:39:28;;;;;;;6.78;4.47;;;9.80;66.60;;;;;;5036317;28;20041;-71
2023/05/01 04:41:53;;;;;;;9.07;4.85;;;9.80;66.70;;;;;;5036241;28;20098;-71
2023/05/01 04:44:19;;;;;;;6.00;4.82;;;9.80;67.30;;;;;;5036203;28;20044;-71
2023/05/01 04:46:45;;;;;;;7.57;4.38;;;9.70;66.90;;;;;;5036231;28;20480;-71
2023/05/01 04:49:11;;;;;;;5.82;3.97;;;9.70;67.20;;;;;;5036111;28;20041;-71
2023/05/01 04:51:37;;;;;;;6.22;4.13;;;9.70;67.40;;;;;;5036444;28;20048;-71
2023/05/01 04:54:03;;;;;;;7.25;3.90;;;9.70;67.60;;;;;;5019649;28;20459;-71
2023/05/01 04:56:29;;;;;;;5.72;4.30;;;9.70;67.70;;;;;;5019767;28;20503;-71
2023/05/01 04:58:55;;;;;;;7.80;4.25;;;9.70;67.90;;;;;;5017735;28;20136;-71
2023/05/01 05:01:21;;;;;;;6.80;4.60;;;9.70;68.00;;;;;;5035864;28;20444;-71
2023/05/01 05:03:46;;;;;;;8.70;5.07;;;9.70;68.00;;;;;;5019414;28;20045;-71
2023/05/01 05:06:12;;;;;;;7.50;4.47;;;9.70;68.10;;;;;;5036030;28;20045;-71
2023/05/01 05:08:38;;;;;;;6.80;4.18;;;9.80;68.10;;;;;;5019383;28;20041;-70
2023/05/01 05:11:03;;;;;;;9.13;4.78;;;9.80;68.10;;;;;;5019244;28;20068;-71
2023/05/01 05:13:29;;;;;;;7.78;4.47;;;9.80;68.20;;;;;;5019268;28;20052;-71
2023/05/01 05:15:55;;;;;;;7.97;5.03;;;9.80;68.00;;;;;;5035969;28;20045;-70
2023/05/01 05:18:21;;;;;;;8.43;5.50;;;9.90;67.90;;;;;;5035628;28;20052;-70
2023/05/01 05:20:47;;;;;;;7.57;4.97;;;9.90;67.80;;;;;;5019217;28;20041;-70
2023/05/01 05:23:12;;;;;;;8.30;4.97;;;9.90;67.80;;;;;;5035436;28;20048;-70
2023/05/01 05:25:38;;;;;;;8.73;5.55;;;9.90;67.80;;;;;;5035540;28;20041;-70
2023/05/01 05:28:04;;;;;;;8.15;5.25;;;9.90;67.80;;;;;;5035515;28;20032;-70
2023/05/01 05:30:29;;;;;;;8.23;5.50;;;9.80;67.80;;;;;;5035512;28;20044;-70
2023/05/01 05:32:55;;;;;;;8.35;5.78;;;9.80;68.00;;;;;;5035378;28;20151;-70
2023/05/01 05:35:21;;;;;;;7.90;5.28;;;9.80;68.20;;;;;;5018940;28;20052;-71
2023/05/01 05:37:46;;;;;;;7.85;5.07;;;9.80;68.10;;;;;;5035237;28;20450;-70
2023/05/01 05:40:12;;;;;;;8.40;5.43;;;9.70;68.50;;;;;;5035221;28;20051;-70
2023/05/01 05:42:38;;;;;;;11.40;5.57;;;9.70;68.80;;;;;;5035192;28;20075;-76
2023/05/01 05:45:05;;;;;;;6.68;4.93;;;9.70;69.00;;;;;;5019514;28;20064;-76
2023/05/01 05:47:30;;;;;;;8.90;5.70;;;9.80;69.20;;;;;;5019283;28;20033;-77
2023/05/01 05:49:56;;;;;;;11.27;6.20;;;9.80;69.30;;;;;;5035516;28;20546;-76
2023/05/01 05:52:22;;;;;;;9.70;6.18;;;9.80;69.20;;;;;;5035388;28;20041;-78
2023/05/01 05:54:48;;;;;;;7.65;5.38;;;9.90;69.30;;;;;;5035375;28;20041;-78
2023/05/01 05:57:14;;;;;;;11.35;5.93;;;9.90;69.40;;;;;;5035427;28;20049;-77
2023/05/01 05:59:39;;;;;;;10.55;6.22;;;9.90;69.60;;;;;;5035490;28;20060;-77
2023/05/01 06:02:05;;;;;;;8.88;5.80;;;10.00;69.70;;;;;;5035632;28;20488;-76
2023/05/01 06:04:31;;;;;;;8.85;5.32;;;10.00;70.00;;;;;;5035474;28;20399;-77
2023/05/01 06:06:58;;;;;;;9.20;5.60;;;10.20;70.30;;;;;;5052564;28;20043;-77
2023/05/01 06:09:25;;;;;;;9.05;5.22;;;10.30;70.10;;;;;;5035383;28;20484;-77
2023/05/01 06:11:50;;;;;;;10.10;5.57;;;10.50;69.50;;;;;;5035762;28;20484;-78
2023/05/01 06:14:16;;;;;;;9.13;5.88;;;10.70;69.50;;;;;;5035521;28;20044;-78
2023/05/01 06:16:42;;;;;;;8.65;5.70;;;10.90;69.40;;;;;;5035355;28;20049;-78
2023/05/01 06:19:10;;;;;;;10.57;5.70;;;11.10;68.80;;;;;;5018822;28;20041;-78
2023/05/01 06:21:36;;;;;;;7.38;5.07;;;11.40;68.30;;;;;;5035097;28;20037;-78
2023/05/01 06:24:02;;;;;;;6.90;5.20;;;11.70;67.50;;;;;;5035056;28;20048;-78
2023/05/01 06:26:28;;;;;;;9.38;5.22;;;11.90;66.80;;;;;;5035371;28;20043;-77
2023/05/01 06:28:54;;;;;;;8.35;5.68;;;12.10;65.70;;;;;;5035366;28;20037;-77
2023/05/01 06:31:19;;;;;;;8.25;5.15;;;12.20;65.20;;;;;;5035152;28;20545;-77
2023/05/01 06:33:45;;;;;;;7.20;5.15;;;12.50;65.40;;;;;;5035186;28;20049;-77
2023/05/01 06:36:11;;;;;;;6.57;5.10;;;12.70;65.50;;;;;;5019059;28;20049;-77
2023/05/01 06:38:37;;;;;;;9.15;4.88;;;13.00;65.10;;;;;;5034933;28;20488;-79
2023/05/01 06:41:06;;;;;;;8.80;5.85;;;13.30;63.90;;;;;;5034999;28;20036;-77
2023/05/01 06:43:32;;;;;;;7.90;4.93;;;13.60;62.10;;;;;;5034580;28;20049;-77
2023/05/01 06:45:58;;;;;;;7.70;5.20;;;13.90;61.10;;;;;;5034651;28;20048;-77
2023/05/01 06:48:23;;;;;;;14.70;6.68;;;14.20;60.20;;;;;;5034655;28;20037;-77
2023/05/01 06:50:49;;;;;;;9.77;5.68;;;14.50;59.50;;;;;;5018724;28;20083;-79
2023/05/01 06:53:15;;;;;;;9.38;5.13;;;14.70;58.80;;;;;;5034784;28;20492;-78
2023/05/01 06:55:41;;;;;;;8.65;4.82;;;14.90;58.50;;;;;;5035033;28;20044;-77
2023/05/01 06:58:07;;;;;;;7.07;4.97;;;15.00;58.00;;;;;;5034662;28;20041;-71
2023/05/01 07:00:36;;;;;;;7.53;5.20;;;15.10;57.70;;;;;;5034252;28;20147;-71
2023/05/01 07:03:02;;;;;;;6.80;4.68;;;15.30;57.10;;;;;;5034605;28;20647;-71
2023/05/01 07:05:29;;;;;;;9.70;5.03;;;15.40;56.80;;;;;;5034637;28;20500;-72
2023/05/01 07:07:54;;;;;;;9.20;5.07;;;15.60;56.00;;;;;;5034283;28;20044;-71
2023/05/01 07:10:20;;;;;;;7.22;4.10;;;15.70;55.60;;;;;;5034274;28;20418;-71
2023/05/01 07:12:46;;;;;;;9.18;5.00;;;15.80;54.60;;;;;;5034310;28;20150;-71
2023/05/01 07:15:14;;;;;;;6.75;4.40;;;15.80;54.10;;;;;;5034251;28;20120;-71
2023/05/01 07:17:40;;;;;;;9.88;5.55;;;16.00;54.50;;;;;;5034236;28;20084;-72
2023/05/01 07:20:07;;;;;;;9.55;4.68;;;16.20;54.00;;;;;;5020951;28;20069;-71
2023/05/01 07:22:33;;;;;;;8.77;5.05;;;16.30;53.10;;;;;;5037654;28;20037;-71
2023/05/01 07:25:00;;;;;;;10.60;5.07;;;16.50;53.20;;;;;;5037637;28;20032;-72
2023/05/01 07:27:26;;;;;;;8.05;4.55;;;16.60;52.00;;;;;;5005082;28;20124;-72
2023/05/01 07:29:54;;;;;;;10.40;5.60;;;16.70;51.00;;;;;;5037648;28;20170;-71
2023/05/01 07:32:20;;;;;;;9.90;4.57;;;16.80;50.70;;;;;;5037659;28;20072;-72
2023/05/01 07:34:45;;;;;;;7.07;4.47;;;16.80;50.10;;;;;;5021150;28;20075;-72
2023/05/01 07:37:11;;;;;;;7.32;4.50;;;16.90;48.90;;;;;;5037871;28;20051;-72
2023/05/01 07:39:37;;;;;;;7.00;4.20;;;17.00;48.60;;;;;;5037510;28;20404;-72
2023/05/01 07:42:03;;;;;;;8.18;4.63;;;17.30;48.90;;;;;;5037470;28;20128;-72
2023/05/01 07:44:28;;;;;;;8.82;4.47;;;17.50;47.90;;;;;;5020870;28;20044;-72
2023/05/01 07:46:54;;;;;;;8.82;4.80;;;17.60;46.90;;;;;;5037485;28;20037;-72
2023/05/01 07:49:20;;;;;;;7.18;4.45;;;17.90;46.90;;;;;;5020890;28;20079;-72
2023/05/01 07:51:45;;;;;;;7.28;3.97;;;18.10;46.20;;;;;;5037594;28;20037;-72
2023/05/01 07:54:13;;;;;;;10.35;4.80;;;18.30;46.20;;;;;;5037067;28;20052;-73
2023/05/01 07:56:39;;;;;;;5.82;4.07;;;18.50;45.90;;;;;;5021026;28;20377;-73
2023/05/01 07:59:05;;;;;;;9.30;3.88;;;18.70;45.00;;;;;;5037267;28;20053;-71
2023/05/01 08:01:32;;;;;;;7.20;4.63;;;18.90;45.00;;;;;;5037142;28;20044;-71
2023/05/01 08:03:58;;;;;;;9.02;4.57;;;19.10;44.60;;;;;;5020491;28;20190;-71
2023/05/01 08:06:24;;;;;;;7.55;4.40;;;19.30;44.00;;;;;;5020484;28;20132;-71
2023/05/01 08:08:50;;;;;;;5.97;4.15;;;19.40;42.80;;;;;;5036920;28;20040;-72
2023/05/01 08:11:16;;;;;;;7.65;4.47;;;19.50;42.40;;;;;;5037189;28;20132;-72
2023/05/01 08:13:41;;;;;;;6.28;4.30;;;19.50;42.10;;;;;;5036844;28;20537;-72
2023/05/01 08:16:07;;;;;;;7.53;4.00;;;19.60;41.60;;;;;;5037082;28;20053;-72
2023/05/01 08:18:33;;;;;;;8.43;3.90;;;19.60;41.30;;;;;;5020332;28;20473;-72
2023/05/01 08:20:59;;;;;;;8.02;3.63;;;19.60;41.30;;;;;;5036595;28;20045;-72
2023/05/01 08:23:24;;;;;;;8.20;4.18;;;19.70;41.20;;;;;;5036517;28;20041;-72
2023/05/01 08:25:51;;;;;;;8.75;3.95;;;19.90;40.70;;;;;;5036421;28;20053;-72
2023/05/01 08:28:19;;;;;;;6.00;4.05;;;20.00;40.40;;;;;;5036821;28;20381;-71
2023/05/01 08:30:45;;;;;;;6.43;4.20;;;20.10;40.10;;;;;;5019294;28;20472;-71
2023/05/01 08:33:10;;;;;;;6.25;3.50;;;20.20;39.80;;;;;;5019880;28;20094;-71
2023/05/01 08:35:36;;;;;;;6.00;3.80;;;20.20;40.00;;;;;;5036228;28;20036;-71
2023/05/01 08:38:02;;;;;;;6.63;4.10;;;20.30;40.70;;;;;;5036433;28;20080;-72
2023/05/01 08:40:31;;;;;;;8.57;3.97;;;20.40;39.90;;;;;;5036374;28;20077;-72
2023/05/01 08:43:00;;;;;;;5.60;3.47;;;20.40;39.50;;;;;;5036449;28;20485;-72
2023/05/01 08:45:28;;;;;;;7.65;3.30;;;20.50;39.10;;;;;;5036430;28;20033;-72
2023/05/01 08:47:54;;;;;;;9.02;3.90;;;20.50;38.70;;;;;;5036465;28;20045;-72
2023/05/01 08:50:21;;;;;;;7.68;3.67;;;20.50;37.90;;;;;;5036449;28;20048;-72
2023/05/01 08:52:49;;;;;;;6.07;3.10;;;20.50;37.30;;;;;;5019959;28;20064;-72
2023/05/01 08:55:15;;;;;;;5.45;3.15;;;20.50;37.40;;;;;;5035818;28;20044;-72
2023/05/01 08:57:45;;;;;;;8.02;3.35;;;20.60;38.40;;;;;;5035876;28;20044;-72
2023/05/01 09:00:20;;;;;;;6.40;3.60;;;20.70;39.40;;;;;;5003134;28;20049;-72
2023/05/01 09:02:48;;;;;;;6.25;3.40;;;20.90;38.40;;;;;;5035967;28;20194;-72
2023/05/01 09:05:18;;;;;;;7.78;3.75;;;21.00;38.20;;;;;;5036113;28;20044;-72
2023/05/01 09:07:45;;;;;;;6.80;2.78;;;21.10;38.50;;;;;;5035804;28;20044;-72
2023/05/01 09:10:20;;;;;;;5.38;3.13;;;21.20;37.60;;;;;;5035709;28;20120;-72
2023/05/01 09:12:51;;;;;;;6.43;2.85;;;21.30;37.10;;;;;;5035719;28;20033;-72
2023/05/01 09:15:17;;;;;;;4.85;3.30;;;21.30;38.00;;;;;;5035754;28;20044;-72
2023/05/01 09:17:43;;;;;;;5.50;3.40;;;21.40;37.60;;;;;;5035795;28;20060;-72
2023/05/01 09:20:10;;;;;;;5.55;3.03;;;21.50;38.10;;;;;;5019193;28;20099;-72
2023/05/01 09:22:36;;;;;;;6.45;3.83;;;21.50;37.90;;;;;;5019133;28;20037;-72
2023/05/01 09:25:02;;;;;;;5.65;3.15;;;21.60;38.10;;;;;;5035283;28;20052;-72
2023/05/01 09:27:38;;;;;;;8.35;4.32;;;21.60;38.80;;;;;;5018972;28;20068;-72
2023/05/01 09:30:06;;;;;;;7.25;3.80;;;21.80;39.30;;;;;;5019343;28;20079;-77
2023/05/01 09:32:32;;;;;;;7.03;3.40;;;21.90;39.40;;;;;;5035681;28;20103;-77
2023/05/01 09:35:12;;;;;;;7.00;3.88;;;22.00;38.70;;;;;;5035778;28;20049;-79
2023/05/01 09:37:38;;;;;;;5.18;2.80;;;22.20;37.70;;;;;;5035562;28;20047;-77
2023/05/01 09:40:09;;;;;;;7.00;3.60;;;22.20;38.00;;;;;;5035562;28;20053;-77
2023/05/01 09:42:51;;;;;;;5.82;2.80;;;22.30;37.90;;;;;;5035000;28;20052;-77
2023/05/01 09:45:18;;;;;;;6.82;2.70;;;22.30;37.30;;;;;;5021027;28;20037;-77
2023/05/01 09:47:45;;;;;;;4.53;2.33;;;22.40;37.20;;;;;;5035367;28;20053;-77
2023/05/01 09:50:33;;;;;;;5.80;2.35;;;22.50;37.90;;;;;;5035342;28;20041;-77
2023/05/01 09:53:05;;;;;;;7.00;2.90;;;22.60;37.70;;;;;;5035502;28;20041;-77
2023/05/01 09:55:32;;;;;;;6.63;3.08;;;22.70;37.10;;;;;;5035324;28;20492;-76
2023/05/01 09:57:58;;;;;;;4.75;2.65;;;22.70;37.60;;;;;;5019181;28;20045;-76
2023/05/01 10:00:24;;;;;;;3.58;2.33;;;22.80;36.50;;;;;;5035421;28;20061;-77
2023/05/01 10:02:50;;;;;;;3.47;2.08;;;22.70;37.30;;;;;;5035503;28;20048;-76
2023/05/01 10:05:17;;;;;;;6.03;2.83;;;22.80;37.90;;;;;;5019161;28;20048;-77
2023/05/01 10:08:01;;;;;;;4.82;2.10;;;22.90;38.20;;;;;;5035180;28;20071;-76
2023/05/01 10:10:27;;;;;;;2.47;1.35;;;23.00;39.10;;;;;;5035371;28;20133;-78
2023/05/01 10:12:53;;;;;;;2.75;1.17;;;23.20;38.20;;;;;;5035349;28;20077;-78
2023/05/01 10:15:19;;;;;;;3.65;1.50;;;23.30;38.00;;;;;;5035214;28;20048;-77
2023/05/01 10:17:48;;;;;;;3.67;1.50;;;23.40;38.30;;;;;;5035009;28;20049;-77
2023/05/01 10:20:13;;;;;;;3.45;1.80;;;23.40;36.60;;;;;;5053143;28;20098;-77
2023/05/01 10:22:40;;;;;;;2.72;1.00;;;23.40;36.70;;;;;;5035118;28;20045;-77
2023/05/01 10:25:13;;;;;;;2.38;1.00;;;23.30;37.20;;;;;;5034973;28;20060;-75
2023/05/01 10:27:40;;;;;;;;;;;23.40;37.00;;;;;;5019091;28;20492;-77
2023/05/01 10:30:07;;;;;;;2.63;1.30;;;23.40;38.00;;;;;;5035079;28;19916;-77
2023/05/01 10:32:34;;;;;;;2.60;1.13;;;23.40;37.40;;;;;;5035031;28;20056;-77
2023/05/01 10:35:07;;;;;;;3.03;1.30;;;23.50;36.90;;;;;;5035289;28;20055;-77
2023/05/01 10:37:58;;;;;;;3.55;1.40;;;23.50;37.40;;;;;;5034854;28;20041;-77
2023/05/01 10:40:40;;;;;;;1.88;1.00;;;23.70;37.90;;;;;;5034875;28;21381;-77
2023/05/01 10:43:24;;;;;;;3.92;1.38;;;23.70;36.60;;;;;;5034722;28;20079;-77
2023/05/01 10:45:51;;;;;;;2.65;1.20;;;23.70;36.40;;;;;;5035152;28;20052;-77
2023/05/01 10:48:42;;;;;;;3.65;1.45;;;23.70;37.10;;;;;;5018274;28;20079;-72
2023/05/01 10:51:11;;;;;;;2.75;1.48;;;23.80;37.20;;;;;;5034860;28;20045;-71
2023/05/01 10:53:38;;;;;;;2.22;1.10;;;23.90;35.40;;;;;;5020476;28;20131;-71
2023/05/01 10:56:05;;;;;;;3.85;1.27;;;23.80;36.00;;;;;;5038404;28;20365;-72
2023/05/01 10:58:39;;;;;;;2.67;1.27;;;23.70;36.30;;;;;;5038125;28;20060;-71
2023/05/01 11:01:27;;;;;;;3.30;1.50;;;23.80;36.90;;;;;;5038024;28;20057;-72
2023/05/01 11:03:53;;;;;;;5.20;1.83;;;23.90;37.40;;;;;;5038046;28;20080;-71
2023/05/01 11:06:19;;;;;;;3.55;1.33;;;23.90;36.70;;;;;;5038207;28;20067;-72
2023/05/01 11:08:46;;;;;;;3.83;1.67;;;23.90;35.60;;;;;;5038358;28;20041;-72
2023/05/01 11:11:21;;;;;;;3.97;1.90;;;23.70;35.90;;;;;;5038001;28;20055;-72
2023/05/01 11:14:04;;;;;;;5.05;1.80;;;23.70;37.10;;;;;;5037963;28;20052;-72
2023/05/01 11:16:36;;;;;;;2.47;1.13;;;23.50;35.60;;;;;;5038190;28;20458;-72
2023/05/01 11:19:06;;;;;;;2.20;1.10;;;23.50;36.00;;;;;;5037821;28;20290;-72
2023/05/01 11:21:33;;;;;;;3.67;1.17;;;23.40;36.70;;;;;;5037753;28;20495;-71
2023/05/01 11:24:00;;;;;;;3.00;1.10;;;23.40;37.50;;;;;;5037855;28;20087;-71
2023/05/01 11:26:27;;;;;;;3.00;1.20;;;23.50;37.50;;;;;;5038123;28;20041;-71
2023/05/01 11:28:56;;;;;;;2.85;1.17;;;23.50;36.90;;;;;;5037571;28;20103;-71
2023/05/01 11:31:21;;;;;;;3.65;1.25;;;23.50;37.00;;;;;;5037742;28;20041;-71
2023/05/01 11:33:48;;;;;;;2.67;1.30;;;23.50;36.80;;;;;;5037900;28;20133;-71
2023/05/01 11:36:13;;;;;;;2.80;1.20;;;23.50;36.90;;;;;;5037592;28;20048;-71
2023/05/01 11:38:53;;;;;;;4.13;1.50;;;23.50;37.00;;;;;;5037831;28;20041;-71
2023/05/01 11:41:22;;;;;;;4.25;1.40;;;23.60;36.50;;;;;;5037557;28;20503;-71
2023/05/01 11:43:58;;;;;;;3.25;1.27;;;23.50;36.60;;;;;;5020870;28;20094;-71
2023/05/01 11:46:28;;;;;;;2.70;1.20;;;23.50;36.60;;;;;;5021225;28;20044;-71
2023/05/01 11:48:57;;;;;;;2.47;1.60;;;23.40;37.60;;;;;;5037549;28;20033;-71
2023/05/01 11:51:25;;;;;;;4.57;1.52;;;23.50;37.40;;;;;;5037492;28;20388;-71
2023/05/01 11:54:11;;;;;;;2.75;1.45;;;23.50;36.50;;;;;;5037137;28;20056;-71
2023/05/01 11:56:39;;;;;;;2.17;1.30;;;23.50;37.10;;;;;;5020792;28;20045;-71
2023/05/01 11:59:15;;;;;;;3.15;1.50;;;23.50;36.80;;;;;;5020526;28;20167;-71
2023/05/01 12:01:43;;;;;;;2.75;1.50;;;23.60;36.80;;;;;;5037125;28;20049;-71
2023/05/01 12:04:10;;;;;;;3.55;1.27;;;23.50;36.90;;;;;;5019877;28;20082;-71
2023/05/01 12:06:44;;;;;;;4.18;1.83;;;23.50;37.60;;;;;;5037067;28;20041;-71
2023/05/01 12:09:16;;;;;;;4.15;1.88;;;23.50;37.20;;;;;;5036765;28;20041;-71
2023/05/01 12:11:42;;;;;;;3.90;1.27;;;23.60;37.20;;;;;;5020502;28;20051;-71
2023/05/01 12:14:09;;;;;;;3.70;1.13;;;23.60;37.50;;;;;;5037094;28;20048;-71
2023/05/01 12:16:36;;;;;;;3.55;1.20;;;23.60;37.60;;;;;;5037006;28;20056;-71
2023/05/01 12:19:03;;;;;;;3.30;1.20;;;23.70;37.60;;;;;;5004014;28;20045;-71
2023/05/01 12:21:30;;;;;;;2.83;1.40;;;23.70;37.40;;;;;;5036613;28;20036;-71
2023/05/01 12:23:58;;;;;;;4.28;1.13;;;23.70;37.10;;;;;;5036448;28;20044;-71
2023/05/01 12:26:24;;;;;;;2.58;1.15;;;23.70;36.50;;;;;;5020608;28;20044;-71
2023/05/01 12:28:59;;;;;;;2.15;0.98;;;23.70;35.70;;;;;;5020085;28;20041;-71
2023/05/01 12:31:25;;;;;;;2.15;1.02;;;23.60;36.40;;;;;;5036768;28;20045;-71
2023/05/01 12:34:05;;;;;;;3.05;1.00;;;23.60;36.00;;;;;;5036708;28;20112;-71
2023/05/01 12:36:34;;;;;;;2.33;1.10;;;23.50;36.50;;;;;;5036382;28;20488;-71
2023/05/01 12:39:11;;;;;;;5.38;1.15;;;23.60;37.20;;;;;;5036631;28;20048;-71
2023/05/01 12:41:47;;;;;;;3.60;1.02;;;23.50;37.60;;;;;;5003865;28;20044;-71
2023/05/01 12:44:26;;;;;;;1.85;0.95;;;23.60;37.90;;;;;;5036346;28;20472;-71
2023/05/01 12:46:53;;;;;;;3.05;1.13;;;23.60;38.10;;;;;;5036179;28;20045;-71
2023/05/01 12:49:20;;;;;;;3.75;1.20;;;23.60;38.10;;;;;;5036186;28;20503;-71
2023/05/01 12:51:53;;;;;;;3.80;1.55;;;23.60;37.10;;;;;;5036211;28;20123;-71
2023/05/01 12:54:36;;;;;;;2.67;1.30;;;23.70;37.00;;;;;;5036120;28;20439;-76